createdAt,value
2018-07-23T00:00:45.584Z,30.70
2018-07-23T00:03:13.640Z,30.02
2018-07-23T00:05:41.697Z,27.10
2018-07-23T00:08:09.736Z,32.65
2018-07-23T00:10:37.781Z,28.98
2018-07-23T00:13:05.828Z,32.08
2018-07-23T00:15:33.872Z,22.73
2018-07-23T00:18:01.920Z,28.65
2018-07-23T00:20:29.988Z,24.23
2018-07-23T00:22:58.051Z,26.37
2018-07-23T00:25:26.200Z,22.30
2018-07-23T00:27:54.268Z,23.95
2018-07-23T00:30:22.328Z,29.07
2018-07-23T00:32:50.396Z,29.67
2018-07-23T00:35:18.461Z,23.90
2018-07-23T00:37:46.528Z,22.98
2018-07-23T00:40:14.736Z,25.25
2018-07-23T00:42:42.861Z,24.50
2018-07-23T00:45:10.933Z,23.52
2018-07-23T00:47:39.207Z,72.30
2018-07-23T00:50:07.274Z,23.00
2018-07-23T00:52:35.895Z,19.55
2018-07-23T00:55:04.069Z,24.63
2018-07-23T00:57:32.261Z,22.40
2018-07-23T01:00:00.753Z,26.52
2018-07-23T01:02:28.843Z,26.80
2018-07-23T01:04:57.116Z,31.82
2018-07-23T01:07:25.364Z,29.87
2018-07-23T01:09:53.900Z,28.87
2018-07-23T01:12:29.780Z,24.75
2018-07-23T01:14:57.848Z,33.50
2018-07-23T01:17:25.900Z,30.50
2018-07-23T01:19:55.359Z,28.75
2018-07-23T01:22:24.460Z,26.80
2018-07-23T01:24:52.688Z,22.15
2018-07-23T01:27:20.847Z,24.87
2018-07-23T01:29:49.131Z,21.75
2018-07-23T01:32:17.524Z,25.88
2018-07-23T01:34:45.588Z,23.32
2018-07-23T01:37:13.665Z,25.43
2018-07-23T01:39:41.737Z,27.40
2018-07-23T01:42:09.943Z,20.68
2018-07-23T01:44:38.177Z,20.45
2018-07-23T01:47:07.056Z,19.42
2018-07-23T01:49:35.243Z,19.12
2018-07-23T01:52:03.637Z,19.07
2018-07-23T01:54:31.712Z,21.48
2018-07-23T01:57:00.070Z,28.75
2018-07-23T01:59:28.172Z,20.90
2018-07-23T02:01:56.376Z,22.20
2018-07-23T02:04:24.440Z,23.55
2018-07-23T02:06:52.504Z,22.90
2018-07-23T02:09:20.577Z,23.07
2018-07-23T02:11:48.632Z,25.75
2018-07-23T02:14:16.699Z,20.60
2018-07-23T02:16:44.765Z,23.20
2018-07-23T02:19:12.836Z,20.43
2018-07-23T02:21:40.892Z,19.85
2018-07-23T02:24:08.939Z,28.25
2018-07-23T02:26:36.984Z,20.85
2018-07-23T02:29:05.041Z,22.50
2018-07-23T02:31:33.081Z,18.85
2018-07-23T02:34:01.131Z,18.92
2018-07-23T02:36:29.184Z,21.30
2018-07-23T02:38:57.225Z,22.60
2018-07-23T02:41:25.268Z,19.32
2018-07-23T02:43:53.325Z,19.77
2018-07-23T02:46:21.377Z,26.97
2018-07-23T02:48:49.424Z,27.87
2018-07-23T02:51:17.464Z,28.42
2018-07-23T02:53:45.517Z,28.57
2018-07-23T02:56:13.560Z,25.65
2018-07-23T02:58:41.611Z,28.62
2018-07-23T03:01:09.664Z,23.00
2018-07-23T03:03:37.709Z,19.95
2018-07-23T03:06:05.749Z,14.90
2018-07-23T03:08:33.799Z,17.15
2018-07-23T03:11:01.860Z,18.02
2018-07-23T03:13:29.936Z,14.98
2018-07-23T03:15:57.999Z,18.37
2018-07-23T03:18:26.064Z,15.23
2018-07-23T03:20:54.154Z,16.32
2018-07-23T03:23:22.211Z,17.55
2018-07-23T03:25:50.284Z,14.87
2018-07-23T03:28:18.364Z,16.85
2018-07-23T03:30:46.433Z,16.87
2018-07-23T03:33:14.492Z,16.40
2018-07-23T03:35:42.561Z,18.67
2018-07-23T03:38:10.613Z,15.72
2018-07-23T03:40:38.675Z,18.90
2018-07-23T03:43:06.735Z,17.40
2018-07-23T03:45:34.809Z,15.32
2018-07-23T03:48:02.873Z,17.77
2018-07-23T03:50:30.936Z,19.10
2018-07-23T03:52:58.995Z,19.87
2018-07-23T03:55:27.072Z,21.62
2018-07-23T03:57:55.128Z,17.45
2018-07-23T04:00:23.202Z,23.00
2018-07-23T04:02:51.267Z,18.30
2018-07-23T04:05:19.332Z,27.90
2018-07-23T04:07:47.390Z,21.80
2018-07-23T04:10:15.464Z,21.27
2018-07-23T04:12:43.528Z,26.40
2018-07-23T04:15:11.628Z,22.95
2018-07-23T04:17:39.708Z,24.80
2018-07-23T04:20:07.788Z,25.25
2018-07-23T04:22:35.924Z,28.20
2018-07-23T04:25:03.972Z,26.07
2018-07-23T04:27:32.013Z,25.43
2018-07-23T04:30:00.067Z,25.10
2018-07-23T04:32:28.105Z,26.62
2018-07-23T04:34:56.157Z,31.27
2018-07-23T04:37:24.216Z,28.87
2018-07-23T04:39:52.268Z,26.00
2018-07-23T04:42:20.333Z,25.45
2018-07-23T04:44:48.383Z,33.98
2018-07-23T04:47:16.423Z,25.92
2018-07-23T04:49:44.481Z,30.97
2018-07-23T04:52:12.524Z,35.68
2018-07-23T04:54:40.569Z,46.08
2018-07-23T04:57:08.612Z,42.15
2018-07-23T04:59:36.656Z,29.60
2018-07-23T05:02:04.692Z,36.63
2018-07-23T05:04:32.535Z,39.30
2018-07-23T05:07:00.584Z,36.13
2018-07-23T05:09:28.628Z,30.00
2018-07-23T05:11:56.676Z,26.45
2018-07-23T05:14:24.729Z,28.50
2018-07-23T05:16:52.767Z,27.35
2018-07-23T05:19:20.817Z,27.82
2018-07-23T05:21:48.873Z,31.33
2018-07-23T05:24:16.919Z,27.90
2018-07-23T05:26:44.959Z,27.27
2018-07-23T05:29:13.004Z,42.75
2018-07-23T05:31:41.086Z,33.95
2018-07-23T05:34:09.100Z,32.60
2018-07-23T05:36:37.156Z,39.30
2018-07-23T05:39:07.775Z,42.48
2018-07-23T05:41:35.824Z,34.95
2018-07-23T05:44:03.860Z,35.03
2018-07-23T05:46:31.704Z,32.65
2018-07-23T05:48:59.757Z,33.63
2018-07-23T05:51:27.800Z,34.60
2018-07-23T05:53:55.841Z,32.95
2018-07-23T05:56:23.927Z,34.58
2018-07-23T05:58:51.979Z,34.05
2018-07-23T06:01:20.301Z,29.02
2018-07-23T06:03:48.352Z,30.57
2018-07-23T06:06:16.445Z,36.75
2018-07-23T06:08:44.460Z,31.20
2018-07-23T06:11:12.503Z,32.83
2018-07-23T06:13:40.548Z,30.08
2018-07-23T06:16:08.812Z,33.92
2018-07-23T06:18:36.852Z,31.60
2018-07-23T06:21:05.086Z,33.63
2018-07-23T06:23:33.364Z,36.93
2018-07-23T06:26:01.468Z,31.70
2018-07-23T06:28:29.524Z,34.78
2018-07-23T06:30:57.601Z,29.07
2018-07-23T06:33:25.668Z,26.77
2018-07-23T06:35:53.773Z,25.08
2018-07-23T06:38:21.829Z,32.30
2018-07-23T06:40:49.895Z,23.40
2018-07-23T06:43:17.982Z,20.82
2018-07-23T06:45:46.036Z,22.17
2018-07-23T06:48:14.104Z,26.55
2018-07-23T06:50:42.173Z,20.40
2018-07-23T06:53:10.280Z,26.15
2018-07-23T06:55:38.348Z,23.15
2018-07-23T06:58:06.424Z,21.90
2018-07-23T07:00:34.544Z,20.85
2018-07-23T07:03:02.549Z,20.43
2018-07-23T07:05:30.617Z,27.27
2018-07-23T07:07:58.674Z,20.17
2018-07-23T07:10:26.745Z,22.73
2018-07-23T07:12:54.805Z,22.05
2018-07-23T07:15:22.880Z,22.73
2018-07-23T07:17:50.932Z,23.05
2018-07-23T07:20:18.989Z,22.22
2018-07-23T07:22:47.032Z,25.17
2018-07-23T07:25:15.078Z,21.35
2018-07-23T07:27:43.112Z,26.23
2018-07-23T07:30:11.155Z,24.07
2018-07-23T07:32:39.203Z,23.62
2018-07-23T07:35:07.240Z,30.48
2018-07-23T07:37:35.293Z,25.37
2018-07-23T07:40:03.339Z,24.60
2018-07-23T07:42:31.397Z,25.50
2018-07-23T07:44:59.441Z,26.77
2018-07-23T07:47:27.492Z,25.15
2018-07-23T07:49:55.536Z,25.05
2018-07-23T07:52:23.601Z,24.07
2018-07-23T07:54:51.625Z,29.82
2018-07-23T07:57:19.677Z,27.05
2018-07-23T07:59:47.793Z,23.30
2018-07-23T08:02:15.836Z,27.77
2018-07-23T08:04:43.872Z,24.45
2018-07-23T08:07:11.985Z,24.55
2018-07-23T08:09:39.966Z,28.05
2018-07-23T08:12:08.025Z,28.57
2018-07-23T08:14:36.067Z,25.35
2018-07-23T08:17:04.112Z,24.30
2018-07-23T08:19:32.168Z,20.17
2018-07-23T08:22:00.216Z,18.70
2018-07-23T08:24:28.257Z,19.60
2018-07-23T08:26:56.308Z,19.23
2018-07-23T08:29:24.352Z,34.55
2018-07-23T08:31:52.461Z,21.73
2018-07-23T08:34:20.448Z,21.55
2018-07-23T08:36:48.504Z,22.42
2018-07-23T08:39:16.552Z,16.62
2018-07-23T08:41:44.628Z,17.15
2018-07-23T08:44:12.692Z,18.85
2018-07-23T08:46:40.748Z,18.40
2018-07-23T08:49:08.792Z,20.68
2018-07-23T08:51:36.859Z,22.95
2018-07-23T08:54:04.905Z,17.98
2018-07-23T08:56:32.952Z,21.87
2018-07-23T08:59:00.993Z,16.82
2018-07-23T09:01:29.039Z,16.90
2018-07-23T09:03:57.130Z,22.37
2018-07-23T09:06:25.176Z,18.42
2018-07-23T09:08:53.229Z,14.45
2018-07-23T09:11:21.291Z,22.13
2018-07-23T09:13:49.335Z,18.20
2018-07-23T09:16:17.752Z,16.40
2018-07-23T09:18:45.800Z,13.80
2018-07-23T09:21:13.862Z,13.40
2018-07-23T09:23:41.937Z,15.30
2018-07-23T09:26:09.960Z,15.10
2018-07-23T09:28:38.020Z,15.45
2018-07-23T09:31:06.568Z,12.45
2018-07-23T09:33:34.592Z,18.12
2018-07-23T09:36:02.647Z,16.10
2018-07-23T09:38:30.687Z,14.58
2018-07-23T09:40:58.740Z,14.47
2018-07-23T09:43:26.796Z,12.18
2018-07-23T09:45:54.847Z,17.55
2018-07-23T09:48:22.904Z,11.70
2018-07-23T09:50:50.948Z,11.30
2018-07-23T09:53:19.004Z,15.20
2018-07-23T09:55:47.048Z,16.95
2018-07-23T09:58:15.117Z,14.55
2018-07-23T10:00:48.626Z,23.18
2018-07-23T10:03:16.836Z,17.00
2018-07-23T10:05:44.732Z,16.82
2018-07-23T10:08:12.582Z,15.53
2018-07-23T10:10:40.641Z,14.53
2018-07-23T10:13:08.688Z,14.00
2018-07-23T10:15:36.748Z,14.57
2018-07-23T10:18:04.796Z,16.90
2018-07-23T10:20:32.869Z,13.15
2018-07-23T10:23:00.944Z,10.55
2018-07-23T10:25:29.016Z,14.93
2018-07-23T10:27:57.097Z,11.40
2018-07-23T10:30:25.164Z,11.97
2018-07-23T10:32:53.232Z,15.00
2018-07-23T10:35:21.652Z,14.40
2018-07-23T10:37:49.728Z,13.50
2018-07-23T10:40:17.588Z,12.33
2018-07-23T10:42:45.857Z,9.80
2018-07-23T10:45:13.928Z,12.70
2018-07-23T10:47:42.007Z,14.70
2018-07-23T10:50:10.066Z,13.05
2018-07-23T10:52:37.927Z,13.35
2018-07-23T10:55:05.996Z,12.35
2018-07-23T10:57:34.064Z,19.15
2018-07-23T11:00:02.144Z,13.85
2018-07-23T11:02:30.222Z,12.95
2018-07-23T11:04:58.392Z,8.93
2018-07-23T11:07:26.525Z,12.33
2018-07-23T11:09:54.529Z,12.30
2018-07-23T11:12:22.604Z,17.60
2018-07-23T11:14:50.664Z,13.93
2018-07-23T11:17:18.821Z,9.63
2018-07-23T11:19:47.018Z,11.78
2018-07-23T11:22:15.110Z,10.03
2018-07-23T11:24:45.620Z,11.43
2018-07-23T11:27:11.266Z,13.00
2018-07-23T11:29:39.617Z,11.63
2018-07-23T11:32:07.686Z,11.80
2018-07-23T11:34:35.701Z,14.28
2018-07-23T11:37:03.756Z,12.25
2018-07-23T11:39:31.827Z,10.38
2018-07-23T11:41:59.884Z,12.37
2018-07-23T11:44:27.956Z,11.35
2018-07-23T11:46:56.017Z,10.43
2018-07-23T11:49:24.080Z,8.75
2018-07-23T11:51:52.150Z,12.37
2018-07-23T11:54:20.220Z,13.53
2018-07-23T11:56:48.290Z,9.23
2018-07-23T11:59:16.368Z,10.38
2018-07-23T12:01:44.532Z,8.55
2018-07-23T12:04:12.549Z,9.25
2018-07-23T12:06:40.592Z,9.05
2018-07-23T12:09:10.049Z,9.83
2018-07-23T12:11:38.128Z,8.53
2018-07-23T12:14:06.728Z,8.47
2018-07-23T12:16:34.920Z,8.87
2018-07-23T12:19:02.975Z,11.27
2018-07-23T12:21:31.039Z,7.97
2018-07-23T12:23:59.100Z,7.23
2018-07-23T12:26:27.139Z,12.80
2018-07-23T12:28:55.218Z,13.23
2018-07-23T12:31:23.235Z,10.53
2018-07-23T12:33:51.280Z,9.70
2018-07-23T12:36:19.329Z,8.53
2018-07-23T12:38:47.372Z,11.93
2018-07-23T12:41:15.412Z,8.67
2018-07-23T12:43:43.464Z,9.17
2018-07-23T12:46:11.505Z,8.80
2018-07-23T12:48:39.552Z,7.60
2018-07-23T12:51:08.045Z,8.03
2018-07-23T12:53:36.084Z,7.90
2018-07-23T12:56:04.128Z,8.43
2018-07-23T12:58:32.177Z,8.10
2018-07-23T13:01:00.228Z,9.27
2018-07-23T13:03:28.270Z,8.43
2018-07-23T13:05:56.305Z,8.77
2018-07-23T13:08:24.348Z,8.63
2018-07-23T13:10:52.408Z,7.20
2018-07-23T13:13:20.455Z,7.00
2018-07-23T13:15:48.487Z,7.83
2018-07-23T13:18:16.528Z,8.17
2018-07-23T13:20:44.573Z,7.90
2018-07-23T13:23:12.636Z,7.50
2018-07-23T13:25:40.769Z,7.57
2018-07-23T13:28:08.760Z,9.23
2018-07-23T13:30:36.804Z,7.60
2018-07-23T13:33:04.876Z,7.67
2018-07-23T13:35:32.913Z,7.47
2018-07-23T13:38:01.050Z,7.93
2018-07-23T13:40:29.065Z,7.80
2018-07-23T13:42:57.232Z,7.43
2018-07-23T13:45:25.531Z,13.27
2018-07-23T13:47:53.560Z,8.23
2018-07-23T13:50:21.611Z,6.80
2018-07-23T13:52:49.648Z,7.43
2018-07-23T13:55:17.692Z,9.00
2018-07-23T13:57:45.739Z,8.53
2018-07-23T14:00:13.786Z,8.03
2018-07-23T14:02:41.859Z,7.50
2018-07-23T14:05:09.896Z,6.53
2018-07-23T14:07:37.932Z,7.57
2018-07-23T14:10:05.983Z,8.30
2018-07-23T14:12:34.020Z,9.90
2018-07-23T14:15:02.118Z,6.90
2018-07-23T14:17:30.107Z,7.87
2018-07-23T14:19:58.158Z,13.77
2018-07-23T14:22:26.209Z,9.53
2018-07-23T14:24:54.263Z,11.17
2018-07-23T14:27:22.292Z,6.60
2018-07-23T14:29:50.335Z,8.73
2018-07-23T14:32:18.372Z,6.53
2018-07-23T14:34:46.416Z,6.63
2018-07-23T14:37:14.447Z,6.87
2018-07-23T14:39:42.535Z,6.17
2018-07-23T14:42:10.534Z,9.67
2018-07-23T14:44:38.572Z,9.60
2018-07-23T14:47:06.612Z,8.20
2018-07-23T14:49:34.662Z,9.50
2018-07-23T14:52:02.713Z,11.20
2018-07-23T14:54:30.756Z,8.90
2018-07-23T14:56:58.800Z,12.00
2018-07-23T14:59:26.851Z,7.53
2018-07-23T15:01:54.893Z,9.27
2018-07-23T15:04:22.956Z,6.83
2018-07-23T15:06:50.992Z,6.70
2018-07-23T15:09:19.036Z,8.40
2018-07-23T15:11:47.076Z,8.77
2018-07-23T15:14:15.133Z,10.67
2018-07-23T15:16:43.167Z,7.37
2018-07-23T15:19:11.224Z,7.95
2018-07-23T15:21:39.289Z,7.97
2018-07-23T15:24:07.357Z,5.92
2018-07-23T15:26:35.496Z,6.10
2018-07-23T15:29:03.572Z,5.87
2018-07-23T15:31:31.640Z,6.60
2018-07-23T15:33:59.815Z,6.57
2018-07-23T15:36:27.876Z,7.70
2018-07-23T15:38:55.945Z,6.30
2018-07-23T15:41:23.992Z,6.50
2018-07-23T15:43:52.160Z,6.57
2018-07-23T15:46:20.207Z,5.33
2018-07-23T15:48:48.163Z,5.63
2018-07-23T15:51:16.230Z,5.80
2018-07-23T15:53:44.280Z,5.70
2018-07-23T15:56:12.356Z,6.78
2018-07-23T15:58:40.407Z,6.10
2018-07-23T16:01:08.468Z,6.10
2018-07-23T16:03:36.532Z,6.30
2018-07-23T16:06:05.016Z,7.42
2018-07-23T16:08:32.935Z,6.73
2018-07-23T16:11:01.209Z,6.70
2018-07-23T16:13:29.278Z,8.00
2018-07-23T16:15:57.368Z,7.87
2018-07-23T16:18:25.539Z,5.92
2018-07-23T16:20:53.604Z,6.70
2018-07-23T16:23:21.656Z,6.37
2018-07-23T16:25:49.719Z,6.70
2018-07-23T16:28:17.784Z,9.90
2018-07-23T16:30:45.864Z,6.97
2018-07-23T16:33:13.923Z,12.98
2018-07-23T16:35:41.997Z,7.20
2018-07-23T16:38:10.077Z,6.08
2018-07-23T16:40:38.129Z,7.20
2018-07-23T16:43:06.184Z,5.60
2018-07-23T16:45:34.284Z,8.08
2018-07-23T16:48:02.352Z,6.35
2018-07-23T16:50:30.442Z,5.87
2018-07-23T16:52:58.499Z,7.17
2018-07-23T16:55:26.568Z,6.57
2018-07-23T16:57:54.629Z,7.47
2018-07-23T17:00:22.689Z,7.33
2018-07-23T17:02:50.748Z,5.30
2018-07-23T17:05:18.872Z,7.00
2018-07-23T17:07:46.907Z,8.05
2018-07-23T17:10:14.981Z,6.20
2018-07-23T17:12:43.040Z,8.00
2018-07-23T17:15:11.112Z,8.20
2018-07-23T17:17:39.180Z,7.50
2018-07-23T17:20:07.401Z,5.93
2018-07-23T17:22:35.471Z,10.25
2018-07-23T17:25:03.523Z,9.48
2018-07-23T17:27:31.564Z,10.00
2018-07-23T17:29:59.616Z,6.08
2018-07-23T17:32:27.653Z,5.90
2018-07-23T17:34:55.744Z,8.40
2018-07-23T17:37:23.797Z,5.73
2018-07-23T17:39:51.849Z,6.65
2018-07-23T17:42:19.889Z,5.60
2018-07-23T17:44:47.989Z,8.65
2018-07-23T17:47:15.992Z,5.42
2018-07-23T17:49:44.020Z,7.67
2018-07-23T17:52:12.073Z,7.05
2018-07-23T17:54:40.107Z,9.30
2018-07-23T17:57:08.183Z,5.12
2018-07-23T17:59:36.216Z,6.60
2018-07-23T18:02:04.260Z,6.35
2018-07-23T18:04:32.396Z,5.55
2018-07-23T18:07:00.424Z,5.90
2018-07-23T18:09:28.465Z,5.87
2018-07-23T18:11:56.517Z,5.75
2018-07-23T18:14:24.553Z,5.28
2018-07-23T18:16:52.616Z,6.47
2018-07-23T18:19:20.676Z,5.20
2018-07-23T18:21:49.568Z,8.03
2018-07-23T18:24:17.636Z,5.97
2018-07-23T18:26:45.696Z,7.92
2018-07-23T18:29:13.756Z,6.90
2018-07-23T18:31:41.820Z,4.65
2018-07-23T18:34:09.884Z,7.50
2018-07-23T18:36:37.952Z,6.33
2018-07-23T18:39:08.504Z,6.40
2018-07-23T18:41:36.959Z,5.22
2018-07-23T18:44:05.085Z,10.43
2018-07-23T18:46:33.145Z,8.65
2018-07-23T18:49:53.327Z,11.18
2018-07-23T18:52:21.940Z,7.97
2018-07-23T18:54:51.345Z,6.78
2018-07-23T18:57:19.417Z,11.78
2018-07-23T18:59:47.510Z,6.37
2018-07-23T19:02:16.731Z,7.87
2018-07-23T19:04:44.912Z,8.65
2018-07-23T19:07:13.007Z,7.60
2018-07-23T19:09:41.184Z,7.30
2018-07-23T19:12:09.725Z,6.97
2018-07-23T19:14:37.780Z,7.17
2018-07-23T19:17:07.085Z,5.80
2018-07-23T19:19:35.140Z,6.80
2018-07-23T19:22:03.221Z,8.33
2018-07-23T19:24:31.292Z,8.30
2018-07-23T19:26:59.392Z,7.67
2018-07-23T19:29:27.444Z,13.70
2018-07-23T19:31:55.517Z,12.43
2018-07-23T19:34:23.592Z,7.92
2018-07-23T19:36:51.655Z,11.18
2018-07-23T19:39:20.669Z,11.03
2018-07-23T19:41:48.747Z,9.18
2018-07-23T19:44:16.783Z,7.55
2018-07-23T19:46:45.488Z,8.00
2018-07-23T19:49:13.580Z,6.72
2018-07-23T19:51:41.692Z,10.43
2018-07-23T19:54:10.396Z,6.78
2018-07-23T19:56:38.456Z,10.58
2018-07-23T19:59:06.540Z,8.15
2018-07-23T20:01:34.761Z,8.40
2018-07-23T20:04:02.833Z,9.03
2018-07-23T20:06:30.892Z,8.13
2018-07-23T20:08:59.938Z,7.65
2018-07-23T20:11:28.744Z,13.88
2018-07-23T20:13:56.816Z,7.20
2018-07-23T20:16:24.877Z,9.30
2018-07-23T20:18:52.927Z,7.25
2018-07-23T20:21:20.996Z,9.43
2018-07-23T20:23:49.057Z,10.20
2018-07-23T20:26:17.125Z,8.18
2018-07-23T20:28:45.240Z,10.88
2018-07-23T20:31:13.328Z,8.35
2018-07-23T20:33:41.388Z,10.72
2018-07-23T20:36:09.466Z,9.20
2018-07-23T20:38:37.520Z,10.30
2018-07-23T20:41:05.620Z,8.48
2018-07-23T20:43:34.048Z,10.23
2018-07-23T20:46:02.436Z,13.80
2018-07-23T20:48:30.516Z,8.93
2018-07-23T20:50:58.564Z,8.25
2018-07-23T20:53:26.624Z,13.20
2018-07-23T20:55:54.687Z,9.45
2018-07-23T20:58:23.172Z,7.95
2018-07-23T21:00:52.076Z,8.33
2018-07-23T21:03:20.168Z,9.85
2018-07-23T21:05:48.306Z,7.45
2018-07-23T21:08:16.380Z,7.55
2018-07-23T21:10:44.508Z,11.75
2018-07-23T21:13:12.570Z,11.05
2018-07-23T21:15:40.636Z,11.50
2018-07-23T21:18:08.980Z,8.78
2018-07-23T21:20:37.416Z,11.28
2018-07-23T21:23:05.916Z,11.08
2018-07-23T21:25:34.044Z,13.95
2018-07-23T21:28:02.108Z,11.43
2018-07-23T21:30:30.168Z,11.53
2018-07-23T21:32:58.233Z,7.72
2018-07-23T21:35:26.291Z,9.00
2018-07-23T21:37:54.449Z,9.83
2018-07-23T21:40:22.576Z,10.78
2018-07-23T21:42:50.648Z,16.05
2018-07-23T21:45:18.704Z,9.98
2018-07-23T21:47:46.777Z,10.63
2018-07-23T21:50:14.836Z,10.80
2018-07-23T21:52:42.905Z,13.03
2018-07-23T21:55:10.972Z,13.58
2018-07-23T21:57:39.076Z,16.40
2018-07-23T22:00:10.552Z,10.65
2018-07-23T22:02:38.801Z,9.20
2018-07-23T22:05:06.871Z,11.10
2018-07-23T22:07:34.972Z,12.68
2018-07-23T22:10:03.144Z,9.93
2018-07-23T22:12:31.203Z,9.93
2018-07-23T22:14:59.266Z,10.35
2018-07-23T22:17:27.319Z,9.38
2018-07-23T22:19:55.369Z,9.90
2018-07-23T22:22:23.420Z,12.23
2018-07-23T22:24:51.452Z,16.75
2018-07-23T22:27:19.539Z,14.60
2018-07-23T22:29:47.580Z,15.13
2018-07-23T22:32:15.635Z,11.35
2018-07-23T22:34:43.688Z,12.28
2018-07-23T22:37:11.729Z,9.88
2018-07-23T22:39:39.576Z,11.75
2018-07-23T22:42:07.688Z,11.65
2018-07-23T22:44:35.697Z,10.28
2018-07-23T22:47:03.741Z,17.15
2018-07-23T22:49:31.795Z,11.43
2018-07-23T22:51:59.844Z,14.07
2018-07-23T22:54:27.900Z,13.20
2018-07-23T22:56:55.952Z,10.93
2018-07-23T22:59:23.996Z,16.42
2018-07-23T23:01:52.036Z,13.93
2018-07-23T23:04:20.088Z,13.15
2018-07-23T23:06:48.136Z,9.58
2018-07-23T23:09:16.192Z,11.40
2018-07-23T23:11:44.223Z,12.25
2018-07-23T23:14:12.321Z,12.60
2018-07-23T23:16:40.360Z,14.45
2018-07-23T23:19:08.477Z,12.68
2018-07-23T23:21:36.528Z,15.60
2018-07-23T23:24:04.617Z,13.58
2018-07-23T23:26:32.655Z,15.25
2018-07-23T23:29:00.856Z,12.35
2018-07-23T23:31:29.133Z,15.55
2018-07-23T23:33:57.189Z,12.50
2018-07-23T23:36:25.229Z,13.18
2018-07-23T23:38:53.280Z,15.83
2018-07-23T23:41:21.333Z,12.63
2018-07-23T23:43:49.391Z,14.47
2018-07-23T23:46:17.448Z,17.90
2018-07-23T23:48:45.499Z,11.93
2018-07-23T23:51:13.551Z,17.12
2018-07-23T23:53:41.596Z,14.00
2018-07-23T23:56:09.633Z,17.70
2018-07-23T23:58:37.563Z,15.58
